sensor_id;sensor_type;location;lat;lon;timestamp;pressure;altitude;pressure_sealevel;temperature;humidity
17072;BME280;7731;50.720;6.912;2024-03-07T00:01:22;100868.59;;;4.61;100.00
17072;BME280;7731;50.720;6.912;2024-03-07T00:03:54;100873.88;;;4.45;100.00
17072;BME280;7731;50.720;6.912;2024-03-07T00:06:24;100871.41;;;4.41;100.00
17072;BME280;7731;50.720;6.912;2024-03-07T00:08:55;100869.75;;;4.35;100.00
17072;BME280;7731;50.720;6.912;2024-03-07T00:11:25;100867.09;;;4.44;100.00
17072;BME280;7731;50.720;6.912;2024-03-07T00:13:56;100865.41;;;4.43;100.00
17072;BME280;7731;50.720;6.912;2024-03-07T00:16:29;100868.91;;;4.36;100.00
17072;BME280;7731;50.720;6.912;2024-03-07T00:19:00;100861.13;;;4.49;100.00
17072;BME280;7731;50.720;6.912;2024-03-07T00:21:31;100870.38;;;4.53;100.00
17072;BME280;7731;50.720;6.912;2024-03-07T00:24:02;100870.53;;;4.40;100.00
17072;BME280;7731;50.720;6.912;2024-03-07T00:26:34;100876.63;;;4.30;100.00
17072;BME280;7731;50.720;6.912;2024-03-07T00:29:07;100873.31;;;4.22;100.00
17072;BME280;7731;50.720;6.912;2024-03-07T00:31:43;100875.84;;;4.22;100.00
17072;BME280;7731;50.720;6.912;2024-03-07T00:34:14;100867.31;;;4.26;100.00
17072;BME280;7731;50.720;6.912;2024-03-07T00:36:52;100875.88;;;4.19;100.00
17072;BME280;7731;50.720;6.912;2024-03-07T00:39:23;100880.03;;;4.27;100.00
17072;BME280;7731;50.720;6.912;2024-03-07T00:41:54;100872.38;;;4.29;100.00
17072;BME280;7731;50.720;6.912;2024-03-07T00:44:24;100874.22;;;4.15;100.00
17072;BME280;7731;50.720;6.912;2024-03-07T00:46:57;100877.03;;;3.90;100.00
17072;BME280;7731;50.720;6.912;2024-03-07T00:49:29;100878.88;;;3.74;100.00
17072;BME280;7731;50.720;6.912;2024-03-07T00:52:00;100878.81;;;3.80;100.00
17072;BME280;7731;50.720;6.912;2024-03-07T00:54:30;100875.44;;;3.80;100.00
17072;BME280;7731;50.720;6.912;2024-03-07T00:57:01;100862.66;;;3.89;100.00
17072;BME280;7731;50.720;6.912;2024-03-07T00:59:31;100869.53;;;3.74;100.00
17072;BME280;7731;50.720;6.912;2024-03-07T01:02:05;100864.56;;;3.62;100.00
17072;BME280;7731;50.720;6.912;2024-03-07T01:04:35;100856.19;;;3.54;100.00
17072;BME280;7731;50.720;6.912;2024-03-07T01:07:06;100861.28;;;3.51;100.00
17072;BME280;7731;50.720;6.912;2024-03-07T01:09:36;100856.72;;;3.85;100.00
17072;BME280;7731;50.720;6.912;2024-03-07T01:12:08;100854.97;;;3.95;100.00
17072;BME280;7731;50.720;6.912;2024-03-07T01:14:39;100843.97;;;3.90;100.00
17072;BME280;7731;50.720;6.912;2024-03-07T01:17:14;100858.47;;;3.83;100.00
17072;BME280;7731;50.720;6.912;2024-03-07T01:19:44;100848.47;;;3.66;100.00
17072;BME280;7731;50.720;6.912;2024-03-07T01:22:15;100854.34;;;3.68;100.00
17072;BME280;7731;50.720;6.912;2024-03-07T01:24:46;100837.41;;;3.70;100.00
17072;BME280;7731;50.720;6.912;2024-03-07T01:27:18;100840.84;;;3.65;100.00
17072;BME280;7731;50.720;6.912;2024-03-07T01:29:52;100835.66;;;3.75;100.00
17072;BME280;7731;50.720;6.912;2024-03-07T01:32:26;100848.47;;;3.65;100.00
17072;BME280;7731;50.720;6.912;2024-03-07T01:34:58;100840.34;;;3.27;100.00
17072;BME280;7731;50.720;6.912;2024-03-07T01:37:28;100836.16;;;3.20;100.00
17072;BME280;7731;50.720;6.912;2024-03-07T01:39:58;100832.63;;;3.39;100.00
17072;BME280;7731;50.720;6.912;2024-03-07T01:42:32;100835.19;;;3.35;100.00
17072;BME280;7731;50.720;6.912;2024-03-07T01:45:04;100825.84;;;3.38;100.00
17072;BME280;7731;50.720;6.912;2024-03-07T01:47:38;100834.34;;;3.34;100.00
17072;BME280;7731;50.720;6.912;2024-03-07T01:50:10;100831.94;;;3.17;100.00
17072;BME280;7731;50.720;6.912;2024-03-07T01:52:42;100837.00;;;3.17;100.00
17072;BME280;7731;50.720;6.912;2024-03-07T01:55:13;100824.38;;;3.08;100.00
17072;BME280;7731;50.720;6.912;2024-03-07T01:57:50;100827.06;;;2.90;100.00
17072;BME280;7731;50.720;6.912;2024-03-07T02:00:20;100829.63;;;2.82;100.00
17072;BME280;7731;50.720;6.912;2024-03-07T02:02:56;100832.97;;;2.87;100.00
17072;BME280;7731;50.720;6.912;2024-03-07T02:05:27;100825.31;;;2.93;100.00
17072;BME280;7731;50.720;6.912;2024-03-07T02:07:59;100822.78;;;2.95;100.00
17072;BME280;7731;50.720;6.912;2024-03-07T02:10:29;100822.00;;;2.85;100.00
17072;BME280;7731;50.720;6.912;2024-03-07T02:13:00;100804.22;;;2.88;100.00
17072;BME280;7731;50.720;6.912;2024-03-07T02:15:30;100812.53;;;3.06;100.00
17072;BME280;7731;50.720;6.912;2024-03-07T02:18:06;100812.59;;;2.99;100.00
17072;BME280;7731;50.720;6.912;2024-03-07T02:20:44;100802.47;;;2.96;100.00
17072;BME280;7731;50.720;6.912;2024-03-07T02:23:16;100807.66;;;2.81;100.00
17072;BME280;7731;50.720;6.912;2024-03-07T02:25:46;100806.75;;;2.90;100.00
17072;BME280;7731;50.720;6.912;2024-03-07T02:28:19;100798.31;;;2.86;100.00
17072;BME280;7731;50.720;6.912;2024-03-07T02:30:49;100797.44;;;2.87;100.00
17072;BME280;7731;50.720;6.912;2024-03-07T02:33:20;100799.16;;;2.85;100.00
17072;BME280;7731;50.720;6.912;2024-03-07T02:35:53;100796.59;;;2.88;100.00
17072;BME280;7731;50.720;6.912;2024-03-07T02:38:24;100795.78;;;2.86;100.00
17072;BME280;7731;50.720;6.912;2024-03-07T02:40:54;100799.09;;;2.94;100.00
17072;BME280;7731;50.720;6.912;2024-03-07T02:43:25;100788.91;;;3.00;100.00
17072;BME280;7731;50.720;6.912;2024-03-07T02:45:57;100793.25;;;2.86;100.00
17072;BME280;7731;50.720;6.912;2024-03-07T02:48:27;100796.66;;;2.80;100.00
17072;BME280;7731;50.720;6.912;2024-03-07T02:51:00;100800.97;;;2.71;100.00
17072;BME280;7731;50.720;6.912;2024-03-07T02:53:34;100797.56;;;2.72;100.00
17072;BME280;7731;50.720;6.912;2024-03-07T02:56:06;100795.06;;;2.64;100.00
17072;BME280;7731;50.720;6.912;2024-03-07T02:58:37;100799.34;;;2.56;100.00
17072;BME280;7731;50.720;6.912;2024-03-07T03:01:09;100791.72;;;2.62;100.00
17072;BME280;7731;50.720;6.912;2024-03-07T03:03:39;100785.94;;;2.37;100.00
17072;BME280;7731;50.720;6.912;2024-03-07T03:06:13;100786.78;;;2.36;100.00
17072;BME280;7731;50.720;6.912;2024-03-07T03:08:48;100786.88;;;2.17;100.00
17072;BME280;7731;50.720;6.912;2024-03-07T03:11:18;100791.13;;;2.06;100.00
17072;BME280;7731;50.720;6.912;2024-03-07T03:13:49;100792.84;;;2.01;100.00
17072;BME280;7731;50.720;6.912;2024-03-07T03:16:19;100793.66;;;2.09;100.00
17072;BME280;7731;50.720;6.912;2024-03-07T03:19:09;100786.09;;;1.96;100.00
17072;BME280;7731;50.720;6.912;2024-03-07T03:21:42;100783.59;;;1.87;100.00
17072;BME280;7731;50.720;6.912;2024-03-07T03:24:14;100772.63;;;1.85;100.00
17072;BME280;7731;50.720;6.912;2024-03-07T03:26:45;100773.44;;;1.90;100.00
17072;BME280;7731;50.720;6.912;2024-03-07T03:29:15;100775.97;;;1.87;100.00
17072;BME280;7731;50.720;6.912;2024-03-07T03:31:46;100775.97;;;1.90;100.00
17072;BME280;7731;50.720;6.912;2024-03-07T03:34:16;100775.91;;;2.06;100.00
17072;BME280;7731;50.720;6.912;2024-03-07T03:36:49;100770.00;;;2.07;100.00
17072;BME280;7731;50.720;6.912;2024-03-07T03:39:20;100771.69;;;2.12;100.00
17072;BME280;7731;50.720;6.912;2024-03-07T03:41:50;100768.28;;;2.20;100.00
17072;BME280;7731;50.720;6.912;2024-03-07T03:44:21;100777.66;;;1.98;100.00
17072;BME280;7731;50.720;6.912;2024-03-07T03:46:51;100777.66;;;1.94;100.00
17072;BME280;7731;50.720;6.912;2024-03-07T03:49:24;100772.66;;;1.76;100.00
17072;BME280;7731;50.720;6.912;2024-03-07T03:51:57;100774.31;;;1.86;100.00
17072;BME280;7731;50.720;6.912;2024-03-07T03:54:27;100767.63;;;1.67;100.00
17072;BME280;7731;50.720;6.912;2024-03-07T03:56:58;100766.78;;;1.69;100.00
17072;BME280;7731;50.720;6.912;2024-03-07T03:59:31;100764.28;;;1.52;100.00
17072;BME280;7731;50.720;6.912;2024-03-07T04:02:01;100770.19;;;1.40;100.00
17072;BME280;7731;50.720;6.912;2024-03-07T04:04:32;100767.63;;;1.59;100.00
17072;BME280;7731;50.720;6.912;2024-03-07T04:07:05;100757.44;;;1.79;100.00
17072;BME280;7731;50.720;6.912;2024-03-07T04:09:35;100763.34;;;1.81;100.00
17072;BME280;7731;50.720;6.912;2024-03-07T04:12:07;100760.81;;;1.81;100.00
17072;BME280;7731;50.720;6.912;2024-03-07T04:14:41;100765.91;;;1.69;100.00
17072;BME280;7731;50.720;6.912;2024-03-07T04:17:12;100760.06;;;1.53;100.00
17072;BME280;7731;50.720;6.912;2024-03-07T04:19:43;100765.13;;;1.45;100.00
17072;BME280;7731;50.720;6.912;2024-03-07T04:22:16;100754.16;;;1.46;100.00
17072;BME280;7731;50.720;6.912;2024-03-07T04:24:47;100761.75;;;1.49;100.00
17072;BME280;7731;50.720;6.912;2024-03-07T04:27:21;100759.25;;;1.31;100.00
17072;BME280;7731;50.720;6.912;2024-03-07T04:29:53;100755.00;;;1.39;100.00
17072;BME280;7731;50.720;6.912;2024-03-07T04:32:24;100753.31;;;1.39;100.00
17072;BME280;7731;50.720;6.912;2024-03-07T04:34:56;100749.06;;;1.55;100.00
17072;BME280;7731;50.720;6.912;2024-03-07T04:37:30;100754.97;;;1.60;100.00
17072;BME280;7731;50.720;6.912;2024-03-07T04:40:07;100752.44;;;1.54;100.00
17072;BME280;7731;50.720;6.912;2024-03-07T04:42:46;100755.78;;;1.66;100.00
17072;BME280;7731;50.720;6.912;2024-03-07T04:45:19;100750.72;;;1.66;100.00
17072;BME280;7731;50.720;6.912;2024-03-07T04:47:49;100760.88;;;1.52;100.00
17072;BME280;7731;50.720;6.912;2024-03-07T04:50:20;100739.75;;;1.67;100.00
17072;BME280;7731;50.720;6.912;2024-03-07T04:52:53;100749.06;;;1.58;100.00
17072;BME280;7731;50.720;6.912;2024-03-07T04:55:23;100748.22;;;1.53;100.00
17072;BME280;7731;50.720;6.912;2024-03-07T04:57:53;100748.22;;;1.50;100.00
17072;BME280;7731;50.720;6.912;2024-03-07T05:00:24;100751.66;;;1.40;100.00
17072;BME280;7731;50.720;6.912;2024-03-07T05:02:58;100757.53;;;1.42;100.00
17072;BME280;7731;50.720;6.912;2024-03-07T05:05:32;100750.81;;;1.25;100.00
17072;BME280;7731;50.720;6.912;2024-03-07T05:08:06;100750.81;;;1.22;100.00
17072;BME280;7731;50.720;6.912;2024-03-07T05:10:39;100759.25;;;1.32;100.00
17072;BME280;7731;50.720;6.912;2024-03-07T05:13:10;100750.75;;;1.55;100.00
17072;BME280;7731;50.720;6.912;2024-03-07T05:15:40;100754.09;;;1.74;100.00
17072;BME280;7731;50.720;6.912;2024-03-07T05:18:11;100753.25;;;1.70;100.00
17072;BME280;7731;50.720;6.912;2024-03-07T05:20:42;100747.31;;;1.76;100.00
17072;BME280;7731;50.720;6.912;2024-03-07T05:23:15;100751.50;;;1.92;100.00
17072;BME280;7731;50.720;6.912;2024-03-07T05:25:46;100744.00;;;1.65;100.00
17072;BME280;7731;50.720;6.912;2024-03-07T05:28:17;100748.22;;;1.56;100.00
17072;BME280;7731;50.720;6.912;2024-03-07T05:30:47;100748.16;;;1.73;100.00
17072;BME280;7731;50.720;6.912;2024-03-07T05:33:18;100749.06;;;1.62;100.00
17072;BME280;7731;50.720;6.912;2024-03-07T05:35:49;100743.13;;;1.67;100.00
17072;BME280;7731;50.720;6.912;2024-03-07T05:38:32;100752.34;;;1.88;100.00
17072;BME280;7731;50.720;6.912;2024-03-07T05:41:03;100747.25;;;1.94;100.00
17072;BME280;7731;50.720;6.912;2024-03-07T05:43:36;100744.69;;;2.02;100.00
17072;BME280;7731;50.720;6.912;2024-03-07T05:46:06;100755.66;;;2.12;100.00
17072;BME280;7731;50.720;6.912;2024-03-07T05:48:38;100755.50;;;2.40;100.00
17072;BME280;7731;50.720;6.912;2024-03-07T05:51:08;100760.47;;;2.55;100.00
17072;BME280;7731;50.720;6.912;2024-03-07T05:53:43;100753.66;;;2.60;100.00
17072;BME280;7731;50.720;6.912;2024-03-07T05:56:14;100757.06;;;2.56;100.00
17072;BME280;7731;50.720;6.912;2024-03-07T05:58:44;100757.09;;;2.53;100.00
17072;BME280;7731;50.720;6.912;2024-03-07T06:01:15;100758.75;;;2.60;100.00
17072;BME280;7731;50.720;6.912;2024-03-07T06:03:45;100756.31;;;2.40;100.00
17072;BME280;7731;50.720;6.912;2024-03-07T06:06:16;100749.66;;;2.21;100.00
17072;BME280;7731;50.720;6.912;2024-03-07T06:08:51;100753.88;;;2.26;100.00
17072;BME280;7731;50.720;6.912;2024-03-07T06:11:22;100749.66;;;2.19;100.00
17072;BME280;7731;50.720;6.912;2024-03-07T06:13:52;100747.94;;;2.34;100.00
17072;BME280;7731;50.720;6.912;2024-03-07T06:16:24;100746.91;;;2.59;100.00
17072;BME280;7731;50.720;6.912;2024-03-07T06:18:54;100747.78;;;2.57;100.00
17072;BME280;7731;50.720;6.912;2024-03-07T06:21:25;100752.09;;;2.41;100.00
17072;BME280;7731;50.720;6.912;2024-03-07T06:23:57;100751.28;;;2.37;100.00
17072;BME280;7731;50.720;6.912;2024-03-07T06:26:32;100757.19;;;2.35;100.00
17072;BME280;7731;50.720;6.912;2024-03-07T06:29:15;100751.06;;;2.70;100.00
17072;BME280;7731;50.720;6.912;2024-03-07T06:31:49;100739.03;;;2.93;100.00
17072;BME280;7731;50.720;6.912;2024-03-07T06:34:21;100740.72;;;2.96;100.00
17072;BME280;7731;50.720;6.912;2024-03-07T06:36:51;100743.31;;;2.88;100.00
17072;BME280;7731;50.720;6.912;2024-03-07T06:39:25;100744.97;;;2.94;100.00
17072;BME280;7731;50.720;6.912;2024-03-07T06:41:55;100746.78;;;2.78;100.00
17072;BME280;7731;50.720;6.912;2024-03-07T06:44:28;100744.25;;;2.73;100.00
17072;BME280;7731;50.720;6.912;2024-03-07T06:46:59;100741.66;;;2.81;100.00
17072;BME280;7731;50.720;6.912;2024-03-07T06:49:29;100745.59;;;3.17;100.00
17072;BME280;7731;50.720;6.912;2024-03-07T06:51:59;100743.16;;;3.07;100.00
17072;BME280;7731;50.720;6.912;2024-03-07T06:54:35;100748.25;;;3.03;100.00
17072;BME280;7731;50.720;6.912;2024-03-07T06:57:08;100751.66;;;2.99;100.00
17072;BME280;7731;50.720;6.912;2024-03-07T06:59:38;100734.59;;;3.20;100.00
17072;BME280;7731;50.720;6.912;2024-03-07T07:02:09;100741.31;;;3.27;100.00
17072;BME280;7731;50.720;6.912;2024-03-07T07:04:41;100734.34;;;3.45;100.00
17072;BME280;7731;50.720;6.912;2024-03-07T07:07:12;100738.53;;;3.49;100.00
17072;BME280;7731;50.720;6.912;2024-03-07T07:09:45;100736.97;;;3.35;100.00
17072;BME280;7731;50.720;6.912;2024-03-07T07:12:19;100735.22;;;3.40;100.00
17072;BME280;7731;50.720;6.912;2024-03-07T07:14:50;100737.41;;;3.74;100.00
17072;BME280;7731;50.720;6.912;2024-03-07T07:17:21;100736.75;;;4.85;100.00
17072;BME280;7731;50.720;6.912;2024-03-07T07:19:52;100726.50;;;5.39;100.00
17072;BME280;7731;50.720;6.912;2024-03-07T07:22:23;100730.94;;;5.73;100.00
17072;BME280;7731;50.720;6.912;2024-03-07T07:24:56;100724.75;;;5.83;100.00
17072;BME280;7731;50.720;6.912;2024-03-07T07:27:26;100722.81;;;5.98;100.00
17072;BME280;7731;50.720;6.912;2024-03-07T07:29:56;100728.03;;;5.90;100.00
17072;BME280;7731;50.720;6.912;2024-03-07T07:32:27;100725.25;;;6.04;100.00
17072;BME280;7731;50.720;6.912;2024-03-07T07:34:59;100726.28;;;5.50;100.00
17072;BME280;7731;50.720;6.912;2024-03-07T07:37:29;100731.63;;;5.36;100.00
17072;BME280;7731;50.720;6.912;2024-03-07T07:40:03;100730.38;;;5.10;100.00
17072;BME280;7731;50.720;6.912;2024-03-07T07:42:36;100734.34;;;6.14;100.00
17072;BME280;7731;50.720;6.912;2024-03-07T07:45:11;100726.75;;;6.11;100.00
17072;BME280;7731;50.720;6.912;2024-03-07T07:47:45;100725.38;;;5.98;100.00
17072;BME280;7731;50.720;6.912;2024-03-07T07:50:18;100731.31;;;5.97;100.00
17072;BME280;7731;50.720;6.912;2024-03-07T07:52:51;100724.78;;;6.25;100.00
17072;BME280;7731;50.720;6.912;2024-03-07T07:55:28;100730.91;;;6.17;100.00
17072;BME280;7731;50.720;6.912;2024-03-07T07:58:00;100727.91;;;6.74;100.00
17072;BME280;7731;50.720;6.912;2024-03-07T08:00:31;100729.22;;;6.55;100.00
17072;BME280;7731;50.720;6.912;2024-03-07T08:03:05;100736.50;;;7.39;100.00
17072;BME280;7731;50.720;6.912;2024-03-07T08:05:37;100722.19;;;7.65;100.00
17072;BME280;7731;50.720;6.912;2024-03-07T08:08:09;100729.88;;;7.63;100.00
17072;BME280;7731;50.720;6.912;2024-03-07T08:10:44;100730.34;;;7.13;100.00
17072;BME280;7731;50.720;6.912;2024-03-07T08:13:15;100729.97;;;7.60;100.00
17072;BME280;7731;50.720;6.912;2024-03-07T08:15:46;100726.19;;;6.39;100.00
17072;BME280;7731;50.720;6.912;2024-03-07T08:18:16;100727.97;;;7.06;100.00
17072;BME280;7731;50.720;6.912;2024-03-07T08:20:47;100722.19;;;6.99;100.00
17072;BME280;7731;50.720;6.912;2024-03-07T08:23:23;100714.59;;;10.44;100.00
17072;BME280;7731;50.720;6.912;2024-03-07T08:25:56;100711.78;;;10.93;81.19
17072;BME280;7731;50.720;6.912;2024-03-07T08:28:27;100705.53;;;12.52;66.75
17072;BME280;7731;50.720;6.912;2024-03-07T08:30:57;100689.13;;;15.11;56.28
17072;BME280;7731;50.720;6.912;2024-03-07T08:33:28;100683.41;;;16.99;46.61
17072;BME280;7731;50.720;6.912;2024-03-07T08:36:07;100687.44;;;15.10;49.35
17072;BME280;7731;50.720;6.912;2024-03-07T08:38:37;100680.53;;;14.20;54.64
17072;BME280;7731;50.720;6.912;2024-03-07T08:41:10;100689.38;;;13.68;53.38
17072;BME280;7731;50.720;6.912;2024-03-07T08:43:41;100676.00;;;17.05;48.12
17072;BME280;7731;50.720;6.912;2024-03-07T08:46:11;100666.25;;;19.02;38.97
17072;BME280;7731;50.720;6.912;2024-03-07T08:48:41;100670.47;;;18.10;40.25
17072;BME280;7731;50.720;6.912;2024-03-07T08:51:12;100669.31;;;17.77;39.03
17072;BME280;7731;50.720;6.912;2024-03-07T08:53:42;100677.06;;;14.81;45.34
17072;BME280;7731;50.720;6.912;2024-03-07T08:56:16;100675.72;;;14.14;47.73
17072;BME280;7731;50.720;6.912;2024-03-07T08:58:46;100684.06;;;13.55;49.36
17072;BME280;7731;50.720;6.912;2024-03-07T09:01:16;100670.19;;;17.14;43.62
17072;BME280;7731;50.720;6.912;2024-03-07T09:03:48;100673.13;;;16.17;40.72
17072;BME280;7731;50.720;6.912;2024-03-07T09:06:19;100696.34;;;13.16;41.88
17072;BME280;7731;50.720;6.912;2024-03-07T09:08:54;100676.56;;;13.98;40.99
17072;BME280;7731;50.720;6.912;2024-03-07T09:11:27;100680.38;;;12.75;43.23
17072;BME280;7731;50.720;6.912;2024-03-07T09:13:58;100672.31;;;12.28;44.35
17072;BME280;7731;50.720;6.912;2024-03-07T09:16:28;100670.66;;;12.80;43.26
17072;BME280;7731;50.720;6.912;2024-03-07T09:18:59;100665.25;;;13.02;43.46
17072;BME280;7731;50.720;6.912;2024-03-07T09:21:30;100661.56;;;15.39;39.70
17072;BME280;7731;50.720;6.912;2024-03-07T09:24:00;100660.31;;;14.42;39.14
17072;BME280;7731;50.720;6.912;2024-03-07T09:26:33;100678.91;;;11.59;45.67
17072;BME280;7731;50.720;6.912;2024-03-07T09:29:04;100689.03;;;10.18;50.14
17072;BME280;7731;50.720;6.912;2024-03-07T09:31:36;100681.06;;;10.89;48.76
17072;BME280;7731;50.720;6.912;2024-03-07T09:34:07;100678.16;;;11.95;47.42
17072;BME280;7731;50.720;6.912;2024-03-07T09:36:38;100685.41;;;10.23;50.63
17072;BME280;7731;50.720;6.912;2024-03-07T09:39:09;100690.09;;;9.18;54.09
17072;BME280;7731;50.720;6.912;2024-03-07T09:41:42;100689.72;;;9.05;55.49
17072;BME280;7731;50.720;6.912;2024-03-07T09:44:19;100673.28;;;10.91;50.73
17072;BME280;7731;50.720;6.912;2024-03-07T09:46:56;100678.56;;;10.23;52.03
17072;BME280;7731;50.720;6.912;2024-03-07T09:49:28;100672.56;;;11.08;49.91
17072;BME280;7731;50.720;6.912;2024-03-07T09:52:00;100676.69;;;10.92;49.06
17072;BME280;7731;50.720;6.912;2024-03-07T09:54:31;100676.38;;;10.36;49.86
17072;BME280;7731;50.720;6.912;2024-03-07T09:57:06;100680.28;;;11.08;50.22
17072;BME280;7731;50.720;6.912;2024-03-07T09:59:41;100682.28;;;11.41;48.60
17072;BME280;7731;50.720;6.912;2024-03-07T10:02:15;100689.88;;;10.41;49.87
17072;BME280;7731;50.720;6.912;2024-03-07T10:04:51;100686.16;;;9.09;52.55
17072;BME280;7731;50.720;6.912;2024-03-07T10:07:24;100686.16;;;10.26;51.52
17072;BME280;7731;50.720;6.912;2024-03-07T10:09:58;100685.00;;;9.65;51.96
17072;BME280;7731;50.720;6.912;2024-03-07T10:12:36;100684.56;;;9.05;54.42
17072;BME280;7731;50.720;6.912;2024-03-07T10:15:11;100682.31;;;9.92;52.82
17072;BME280;7731;50.720;6.912;2024-03-07T10:17:42;100680.28;;;8.81;55.22
17072;BME280;7731;50.720;6.912;2024-03-07T10:20:18;100674.16;;;9.59;54.63
17072;BME280;7731;50.720;6.912;2024-03-07T10:22:50;100660.66;;;10.22;51.42
17072;BME280;7731;50.720;6.912;2024-03-07T10:25:26;100660.47;;;10.04;51.52
17072;BME280;7731;50.720;6.912;2024-03-07T10:27:59;100662.19;;;10.26;52.05
17072;BME280;7731;50.720;6.912;2024-03-07T10:30:39;100655.47;;;11.66;47.79
17072;BME280;7731;50.720;6.912;2024-03-07T10:33:14;100649.06;;;11.55;47.48
17072;BME280;7731;50.720;6.912;2024-03-07T10:35:47;100637.78;;;12.67;44.81
17072;BME280;7731;50.720;6.912;2024-03-07T10:38:19;100642.28;;;12.10;45.79
17072;BME280;7731;50.720;6.912;2024-03-07T10:40:54;100632.00;;;12.80;44.36
17072;BME280;7731;50.720;6.912;2024-03-07T10:43:32;100626.84;;;12.62;44.70
17072;BME280;7731;50.720;6.912;2024-03-07T10:46:10;100628.22;;;14.00;41.34
17072;BME280;7731;50.720;6.912;2024-03-07T10:48:45;100620.06;;;14.53;40.79
17072;BME280;7731;50.720;6.912;2024-03-07T10:51:26;100640.66;;;13.46;42.42
17072;BME280;7731;50.720;6.912;2024-03-07T10:54:09;100638.59;;;11.20;46.67
17072;BME280;7731;50.720;6.912;2024-03-07T10:57:06;100635.81;;;10.85;48.35
17072;BME280;7731;50.720;6.912;2024-03-07T10:59:50;100635.44;;;10.74;48.18
17072;BME280;7731;50.720;6.912;2024-03-07T11:02:37;100624.22;;;11.35;48.49
17072;BME280;7731;50.720;6.912;2024-03-07T11:05:13;100623.31;;;11.17;49.17
17072;BME280;7731;50.720;6.912;2024-03-07T11:07:44;100611.91;;;12.69;45.84
17072;BME280;7731;50.720;6.912;2024-03-07T11:10:17;100602.44;;;12.35;46.26
17072;BME280;7731;50.720;6.912;2024-03-07T11:12:49;100614.84;;;12.96;44.67
17072;BME280;7731;50.720;6.912;2024-03-07T11:15:25;100604.25;;;12.67;44.72
17072;BME280;7731;50.720;6.912;2024-03-07T11:17:56;100603.56;;;12.64;44.62
17072;BME280;7731;50.720;6.912;2024-03-07T11:20:34;100600.63;;;11.64;46.41
17072;BME280;7731;50.720;6.912;2024-03-07T11:23:26;100608.38;;;10.23;49.96
17072;BME280;7731;50.720;6.912;2024-03-07T11:26:05;100621.91;;;10.28;50.15
17072;BME280;7731;50.720;6.912;2024-03-07T11:28:38;100608.06;;;10.94;49.12
17072;BME280;7731;50.720;6.912;2024-03-07T11:31:25;100606.59;;;11.83;47.29
17072;BME280;7731;50.720;6.912;2024-03-07T11:34:13;100586.72;;;11.68;48.02
17072;BME280;7731;50.720;6.912;2024-03-07T11:36:48;100583.97;;;12.26;47.28
17072;BME280;7731;50.720;6.912;2024-03-07T11:39:46;100570.09;;;13.93;43.77
17072;BME280;7731;50.720;6.912;2024-03-07T11:42:26;100575.88;;;13.50;44.57
17072;BME280;7731;50.720;6.912;2024-03-07T11:45:00;100563.44;;;13.25;44.85
17072;BME280;7731;50.720;6.912;2024-03-07T11:47:38;100565.84;;;12.79;45.60
17072;BME280;7731;50.720;6.912;2024-03-07T11:50:10;100567.44;;;12.30;45.95
17072;BME280;7731;50.720;6.912;2024-03-07T11:52:40;100572.28;;;11.46;48.13
17072;BME280;7731;50.720;6.912;2024-03-07T11:55:15;100558.44;;;11.85;49.55
17072;BME280;7731;50.720;6.912;2024-03-07T11:57:46;100562.53;;;11.89;47.81
17072;BME280;7731;50.720;6.912;2024-03-07T12:00:20;100563.22;;;11.56;48.02
17072;BME280;7731;50.720;6.912;2024-03-07T12:02:57;100571.94;;;10.97;50.21
17072;BME280;7731;50.720;6.912;2024-03-07T12:05:32;100560.75;;;10.38;51.85
17072;BME280;7731;50.720;6.912;2024-03-07T12:08:05;100549.00;;;10.52;51.37
17072;BME280;7731;50.720;6.912;2024-03-07T12:10:37;100550.53;;;10.57;52.29
17072;BME280;7731;50.720;6.912;2024-03-07T12:13:17;100548.44;;;10.24;53.26
17072;BME280;7731;50.720;6.912;2024-03-07T12:15:47;100539.41;;;10.56;52.76
17072;BME280;7731;50.720;6.912;2024-03-07T12:18:23;100528.88;;;11.94;50.00
17072;BME280;7731;50.720;6.912;2024-03-07T12:20:57;100537.63;;;11.17;50.70
17072;BME280;7731;50.720;6.912;2024-03-07T12:23:30;100524.19;;;10.31;52.60
17072;BME280;7731;50.720;6.912;2024-03-07T12:26:02;100528.66;;;10.26;54.00
17072;BME280;7731;50.720;6.912;2024-03-07T12:28:33;100527.34;;;11.53;51.23
17072;BME280;7731;50.720;6.912;2024-03-07T12:31:06;100518.78;;;11.89;49.40
17072;BME280;7731;50.720;6.912;2024-03-07T12:33:51;100512.94;;;11.86;48.82
17072;BME280;7731;50.720;6.912;2024-03-07T12:36:28;100520.41;;;11.36;50.81
17072;BME280;7731;50.720;6.912;2024-03-07T12:39:02;100517.47;;;11.44;50.86
17072;BME280;7731;50.720;6.912;2024-03-07T12:41:52;100514.47;;;11.53;50.61
17072;BME280;7731;50.720;6.912;2024-03-07T12:44:23;100490.94;;;11.97;50.07
17072;BME280;7731;50.720;6.912;2024-03-07T12:46:56;100489.94;;;11.83;50.27
17072;BME280;7731;50.720;6.912;2024-03-07T12:49:29;100487.06;;;11.89;49.97
17072;BME280;7731;50.720;6.912;2024-03-07T12:52:00;100497.38;;;11.52;50.67
17072;BME280;7731;50.720;6.912;2024-03-07T12:54:32;100500.91;;;11.13;51.31
17072;BME280;7731;50.720;6.912;2024-03-07T12:56:59;100489.97;;;11.46;50.91
17072;BME280;7731;50.720;6.912;2024-03-07T12:59:32;100483.19;;;11.26;52.22
17072;BME280;7731;50.720;6.912;2024-03-07T13:02:05;100485.53;;;11.31;52.01
17072;BME280;7731;50.720;6.912;2024-03-07T13:04:38;100477.22;;;10.87;53.00
17072;BME280;7731;50.720;6.912;2024-03-07T13:07:10;100478.69;;;10.34;54.10
17072;BME280;7731;50.720;6.912;2024-03-07T13:09:43;100476.53;;;9.82;55.69
17072;BME280;7731;50.720;6.912;2024-03-07T13:12:16;100471.41;;;10.24;54.60
17072;BME280;7731;50.720;6.912;2024-03-07T13:14:46;100470.38;;;10.07;55.17
17072;BME280;7731;50.720;6.912;2024-03-07T13:17:17;100467.81;;;10.48;54.23
17072;BME280;7731;50.720;6.912;2024-03-07T13:19:50;100469.47;;;10.29;55.22
17072;BME280;7731;50.720;6.912;2024-03-07T13:22:27;100462.19;;;10.40;54.21
17072;BME280;7731;50.720;6.912;2024-03-07T13:24:59;100473.81;;;11.06;52.60
17072;BME280;7731;50.720;6.912;2024-03-07T13:27:37;100463.97;;;10.97;52.64
17072;BME280;7731;50.720;6.912;2024-03-07T13:30:12;100451.44;;;11.08;52.84